sensor_id;sensor_type;location;lat;lon;timestamp;temperature;humidity
28524;DHT22;15734;50.904;6.922;2022-12-16T00:00:07;-4.30;99.90
28524;DHT22;15734;50.904;6.922;2022-12-16T00:02:34;-4.40;99.90
28524;DHT22;15734;50.904;6.922;2022-12-16T00:04:59;-4.50;99.90
28524;DHT22;15734;50.904;6.922;2022-12-16T00:07:24;-4.40;99.90
28524;DHT22;15734;50.904;6.922;2022-12-16T00:09:50;-4.40;99.90
28524;DHT22;15734;50.904;6.922;2022-12-16T00:12:15;-4.50;99.90
28524;DHT22;15734;50.904;6.922;2022-12-16T00:14:41;-4.60;99.90
28524;DHT22;15734;50.904;6.922;2022-12-16T00:17:06;-4.70;99.90
28524;DHT22;15734;50.904;6.922;2022-12-16T00:19:32;-4.60;99.90
28524;DHT22;15734;50.904;6.922;2022-12-16T00:21:57;-4.70;99.90
28524;DHT22;15734;50.904;6.922;2022-12-16T00:24:23;-4.60;99.90
28524;DHT22;15734;50.904;6.922;2022-12-16T00:26:48;-4.70;99.90
28524;DHT22;15734;50.904;6.922;2022-12-16T00:29:13;-4.60;99.90
28524;DHT22;15734;50.904;6.922;2022-12-16T00:31:39;-4.70;99.90
28524;DHT22;15734;50.904;6.922;2022-12-16T00:34:04;-4.80;99.90
28524;DHT22;15734;50.904;6.922;2022-12-16T00:36:30;-4.80;99.90
28524;DHT22;15734;50.904;6.922;2022-12-16T00:38:55;-4.90;99.90
28524;DHT22;15734;50.904;6.922;2022-12-16T00:41:21;-4.80;99.90
28524;DHT22;15734;50.904;6.922;2022-12-16T00:43:46;-4.80;99.90
28524;DHT22;15734;50.904;6.922;2022-12-16T00:46:12;-4.90;99.90
28524;DHT22;15734;50.904;6.922;2022-12-16T00:48:37;-4.80;99.90
28524;DHT22;15734;50.904;6.922;2022-12-16T00:51:03;-4.60;99.90
28524;DHT22;15734;50.904;6.922;2022-12-16T00:53:28;-4.60;99.90
28524;DHT22;15734;50.904;6.922;2022-12-16T00:56:01;-4.70;99.90
28524;DHT22;15734;50.904;6.922;2022-12-16T00:58:26;-4.70;99.90
28524;DHT22;15734;50.904;6.922;2022-12-16T01:00:52;-4.80;99.90
28524;DHT22;15734;50.904;6.922;2022-12-16T01:03:17;-4.80;99.90
28524;DHT22;15734;50.904;6.922;2022-12-16T01:05:43;-4.80;99.90
28524;DHT22;15734;50.904;6.922;2022-12-16T01:08:08;-4.70;99.90
28524;DHT22;15734;50.904;6.922;2022-12-16T01:10:34;-4.70;99.90
28524;DHT22;15734;50.904;6.922;2022-12-16T01:12:59;-4.70;99.90
28524;DHT22;15734;50.904;6.922;2022-12-16T01:15:25;-4.60;99.90
28524;DHT22;15734;50.904;6.922;2022-12-16T01:17:51;-4.70;99.90
28524;DHT22;15734;50.904;6.922;2022-12-16T01:20:16;-4.70;99.90
28524;DHT22;15734;50.904;6.922;2022-12-16T01:22:42;-4.70;99.90
28524;DHT22;15734;50.904;6.922;2022-12-16T01:25:08;-4.60;99.90
28524;DHT22;15734;50.904;6.922;2022-12-16T01:27:35;-4.80;99.90
28524;DHT22;15734;50.904;6.922;2022-12-16T01:30:00;-4.70;99.90
28524;DHT22;15734;50.904;6.922;2022-12-16T01:32:26;-4.70;99.90
28524;DHT22;15734;50.904;6.922;2022-12-16T01:34:52;-4.70;99.90
28524;DHT22;15734;50.904;6.922;2022-12-16T01:37:18;-4.60;99.90
28524;DHT22;15734;50.904;6.922;2022-12-16T01:39:44;-4.60;99.90
28524;DHT22;15734;50.904;6.922;2022-12-16T01:42:14;-4.50;99.90
28524;DHT22;15734;50.904;6.922;2022-12-16T01:44:43;-4.70;99.90
28524;DHT22;15734;50.904;6.922;2022-12-16T01:47:12;-4.70;99.90
28524;DHT22;15734;50.904;6.922;2022-12-16T01:49:40;-4.70;99.90
28524;DHT22;15734;50.904;6.922;2022-12-16T01:52:07;-4.70;99.90
28524;DHT22;15734;50.904;6.922;2022-12-16T01:54:40;-4.70;99.90
28524;DHT22;15734;50.904;6.922;2022-12-16T01:57:17;-4.90;99.90
28524;DHT22;15734;50.904;6.922;2022-12-16T01:59:44;-5.10;99.90
28524;DHT22;15734;50.904;6.922;2022-12-16T02:02:10;-5.10;99.90
28524;DHT22;15734;50.904;6.922;2022-12-16T02:04:36;-5.00;99.90
28524;DHT22;15734;50.904;6.922;2022-12-16T02:07:22;-4.90;99.90
28524;DHT22;15734;50.904;6.922;2022-12-16T02:12:54;-4.80;99.90
28524;DHT22;15734;50.904;6.922;2022-12-16T02:20:38;-4.70;99.90
28524;DHT22;15734;50.904;6.922;2022-12-16T02:25:41;-4.50;99.90
28524;DHT22;15734;50.904;6.922;2022-12-16T02:28:13;-4.60;99.90
28524;DHT22;15734;50.904;6.922;2022-12-16T02:30:50;-4.90;99.90
28524;DHT22;15734;50.904;6.922;2022-12-16T02:35:58;-5.10;99.90
28524;DHT22;15734;50.904;6.922;2022-12-16T02:38:28;-5.10;99.90
28524;DHT22;15734;50.904;6.922;2022-12-16T02:41:05;-5.00;99.90
28524;DHT22;15734;50.904;6.922;2022-12-16T02:45:59;-4.90;99.90
28524;DHT22;15734;50.904;6.922;2022-12-16T02:48:25;-4.80;99.90
28524;DHT22;15734;50.904;6.922;2022-12-16T02:50:51;-4.90;99.90
28524;DHT22;15734;50.904;6.922;2022-12-16T02:53:17;-4.90;99.90
28524;DHT22;15734;50.904;6.922;2022-12-16T02:56:29;-4.80;99.90
28524;DHT22;15734;50.904;6.922;2022-12-16T02:58:34;-4.90;99.90
28524;DHT22;15734;50.904;6.922;2022-12-16T03:06:10;-4.80;99.90
28524;DHT22;15734;50.904;6.922;2022-12-16T03:08:37;-4.80;99.90
28524;DHT22;15734;50.904;6.922;2022-12-16T03:11:04;-4.90;99.90
28524;DHT22;15734;50.904;6.922;2022-12-16T03:13:42;-4.90;99.90
28524;DHT22;15734;50.904;6.922;2022-12-16T03:16:09;-4.90;99.90
28524;DHT22;15734;50.904;6.922;2022-12-16T03:18:37;-4.70;99.90
28524;DHT22;15734;50.904;6.922;2022-12-16T03:21:05;-4.70;99.90
28524;DHT22;15734;50.904;6.922;2022-12-16T03:23:32;-4.60;99.90
28524;DHT22;15734;50.904;6.922;2022-12-16T03:26:01;-4.60;99.90
28524;DHT22;15734;50.904;6.922;2022-12-16T03:28:38;-4.60;99.90
28524;DHT22;15734;50.904;6.922;2022-12-16T03:31:07;-4.70;99.90
28524;DHT22;15734;50.904;6.922;2022-12-16T03:33:37;-4.60;99.90
28524;DHT22;15734;50.904;6.922;2022-12-16T03:36:06;-4.70;99.90
28524;DHT22;15734;50.904;6.922;2022-12-16T03:38:33;-4.80;99.90
28524;DHT22;15734;50.904;6.922;2022-12-16T03:41:00;-4.70;99.90
28524;DHT22;15734;50.904;6.922;2022-12-16T03:43:27;-4.60;99.90
28524;DHT22;15734;50.904;6.922;2022-12-16T03:45:53;-4.70;99.90
28524;DHT22;15734;50.904;6.922;2022-12-16T03:48:21;-4.70;99.90
28524;DHT22;15734;50.904;6.922;2022-12-16T03:50:47;-4.80;99.90
28524;DHT22;15734;50.904;6.922;2022-12-16T03:53:12;-4.80;99.90
28524;DHT22;15734;50.904;6.922;2022-12-16T03:55:38;-5.00;99.90
28524;DHT22;15734;50.904;6.922;2022-12-16T03:58:04;-5.00;99.90
28524;DHT22;15734;50.904;6.922;2022-12-16T04:00:29;-5.00;99.90
28524;DHT22;15734;50.904;6.922;2022-12-16T04:02:54;-5.00;99.90
28524;DHT22;15734;50.904;6.922;2022-12-16T04:05:20;-4.90;99.90
28524;DHT22;15734;50.904;6.922;2022-12-16T04:07:45;-5.00;99.90
28524;DHT22;15734;50.904;6.922;2022-12-16T04:10:11;-5.00;99.90
28524;DHT22;15734;50.904;6.922;2022-12-16T04:12:36;-5.10;99.90
28524;DHT22;15734;50.904;6.922;2022-12-16T04:15:20;-5.10;99.90
28524;DHT22;15734;50.904;6.922;2022-12-16T04:18:04;-5.00;99.90
28524;DHT22;15734;50.904;6.922;2022-12-16T04:20:50;-4.90;99.90
28524;DHT22;15734;50.904;6.922;2022-12-16T04:23:35;-5.00;99.90
28524;DHT22;15734;50.904;6.922;2022-12-16T04:26:20;-5.00;99.90
28524;DHT22;15734;50.904;6.922;2022-12-16T04:28:46;-4.90;99.90
28524;DHT22;15734;50.904;6.922;2022-12-16T04:31:12;-5.20;99.90
28524;DHT22;15734;50.904;6.922;2022-12-16T04:33:37;-5.30;99.90
28524;DHT22;15734;50.904;6.922;2022-12-16T04:36:22;-5.30;99.90
28524;DHT22;15734;50.904;6.922;2022-12-16T04:39:26;-5.20;99.90
28524;DHT22;15734;50.904;6.922;2022-12-16T04:42:10;-5.10;99.90
28524;DHT22;15734;50.904;6.922;2022-12-16T04:44:55;-5.20;99.90
28524;DHT22;15734;50.904;6.922;2022-12-16T04:47:38;-5.20;99.90
28524;DHT22;15734;50.904;6.922;2022-12-16T04:50:23;-5.30;99.90
28524;DHT22;15734;50.904;6.922;2022-12-16T04:53:07;-5.30;99.90
28524;DHT22;15734;50.904;6.922;2022-12-16T04:55:51;-5.30;99.90
28524;DHT22;15734;50.904;6.922;2022-12-16T04:58:36;-5.40;99.90
28524;DHT22;15734;50.904;6.922;2022-12-16T05:01:20;-5.40;99.90
28524;DHT22;15734;50.904;6.922;2022-12-16T05:04:04;-5.40;99.90
28524;DHT22;15734;50.904;6.922;2022-12-16T05:07:05;-5.30;99.90
28524;DHT22;15734;50.904;6.922;2022-12-16T05:09:50;-5.40;99.90
28524;DHT22;15734;50.904;6.922;2022-12-16T05:12:33;-5.40;99.90
28524;DHT22;15734;50.904;6.922;2022-12-16T05:15:18;-5.40;99.90
28524;DHT22;15734;50.904;6.922;2022-12-16T05:18:09;-5.30;99.90
28524;DHT22;15734;50.904;6.922;2022-12-16T05:20:52;-5.30;99.90
28524;DHT22;15734;50.904;6.922;2022-12-16T05:23:37;-5.40;99.90
28524;DHT22;15734;50.904;6.922;2022-12-16T05:26:21;-5.30;99.90
28524;DHT22;15734;50.904;6.922;2022-12-16T05:29:05;-5.10;99.90
28524;DHT22;15734;50.904;6.922;2022-12-16T05:31:49;-5.30;99.90
28524;DHT22;15734;50.904;6.922;2022-12-16T05:34:34;-5.50;99.90
28524;DHT22;15734;50.904;6.922;2022-12-16T05:37:18;-5.50;99.90
28524;DHT22;15734;50.904;6.922;2022-12-16T05:40:02;-5.60;99.90
28524;DHT22;15734;50.904;6.922;2022-12-16T05:42:46;-5.40;99.90
28524;DHT22;15734;50.904;6.922;2022-12-16T05:45:30;-5.40;99.90
28524;DHT22;15734;50.904;6.922;2022-12-16T05:48:14;-5.60;99.90
28524;DHT22;15734;50.904;6.922;2022-12-16T05:50:59;-5.40;99.90
28524;DHT22;15734;50.904;6.922;2022-12-16T05:53:43;-5.40;99.90
28524;DHT22;15734;50.904;6.922;2022-12-16T05:56:27;-5.30;99.90
28524;DHT22;15734;50.904;6.922;2022-12-16T05:59:11;-5.20;99.90
28524;DHT22;15734;50.904;6.922;2022-12-16T06:01:55;-5.00;99.90
28524;DHT22;15734;50.904;6.922;2022-12-16T06:04:40;-5.30;99.90
28524;DHT22;15734;50.904;6.922;2022-12-16T06:07:24;-5.40;99.90
28524;DHT22;15734;50.904;6.922;2022-12-16T06:10:08;-5.40;99.90
28524;DHT22;15734;50.904;6.922;2022-12-16T06:12:52;-5.30;99.90
28524;DHT22;15734;50.904;6.922;2022-12-16T06:15:36;-5.40;99.90
28524;DHT22;15734;50.904;6.922;2022-12-16T06:18:20;-5.50;99.90
28524;DHT22;15734;50.904;6.922;2022-12-16T06:21:05;-5.50;99.90
28524;DHT22;15734;50.904;6.922;2022-12-16T06:23:49;-5.50;99.90
28524;DHT22;15734;50.904;6.922;2022-12-16T06:26:33;-5.50;99.90
28524;DHT22;15734;50.904;6.922;2022-12-16T06:29:17;-5.50;99.90
28524;DHT22;15734;50.904;6.922;2022-12-16T06:32:01;-5.60;99.90
28524;DHT22;15734;50.904;6.922;2022-12-16T06:34:46;-5.70;99.90
28524;DHT22;15734;50.904;6.922;2022-12-16T06:37:30;-5.80;99.90
28524;DHT22;15734;50.904;6.922;2022-12-16T06:40:14;-5.70;99.90
28524;DHT22;15734;50.904;6.922;2022-12-16T06:42:58;-5.80;99.90
28524;DHT22;15734;50.904;6.922;2022-12-16T06:45:43;-5.70;99.90
28524;DHT22;15734;50.904;6.922;2022-12-16T06:48:27;-5.60;99.90
28524;DHT22;15734;50.904;6.922;2022-12-16T06:51:11;-5.70;99.90
28524;DHT22;15734;50.904;6.922;2022-12-16T06:53:55;-5.80;99.90
28524;DHT22;15734;50.904;6.922;2022-12-16T06:56:39;-6.00;99.90
28524;DHT22;15734;50.904;6.922;2022-12-16T06:59:23;-6.10;99.90
28524;DHT22;15734;50.904;6.922;2022-12-16T07:02:09;-6.00;99.90
28524;DHT22;15734;50.904;6.922;2022-12-16T07:04:53;-5.80;99.90
28524;DHT22;15734;50.904;6.922;2022-12-16T07:07:37;-5.90;99.90
28524;DHT22;15734;50.904;6.922;2022-12-16T07:10:22;-6.00;99.90
28524;DHT22;15734;50.904;6.922;2022-12-16T07:13:06;-6.10;99.90
28524;DHT22;15734;50.904;6.922;2022-12-16T07:15:50;-6.00;99.90
28524;DHT22;15734;50.904;6.922;2022-12-16T07:18:34;-5.90;99.90
28524;DHT22;15734;50.904;6.922;2022-12-16T07:21:19;-5.90;99.90
28524;DHT22;15734;50.904;6.922;2022-12-16T07:24:03;-6.00;99.90
28524;DHT22;15734;50.904;6.922;2022-12-16T07:26:47;-5.90;99.90
28524;DHT22;15734;50.904;6.922;2022-12-16T07:29:31;-6.10;99.90
28524;DHT22;15734;50.904;6.922;2022-12-16T07:32:15;-6.20;99.90
28524;DHT22;15734;50.904;6.922;2022-12-16T07:35:00;-6.10;99.90
28524;DHT22;15734;50.904;6.922;2022-12-16T07:37:44;-6.10;99.90
28524;DHT22;15734;50.904;6.922;2022-12-16T07:40:28;-6.00;99.90
28524;DHT22;15734;50.904;6.922;2022-12-16T07:43:12;-5.90;99.90
28524;DHT22;15734;50.904;6.922;2022-12-16T07:45:56;-5.70;99.90
28524;DHT22;15734;50.904;6.922;2022-12-16T07:48:41;-5.80;99.90
28524;DHT22;15734;50.904;6.922;2022-12-16T07:51:25;-5.70;99.90
28524;DHT22;15734;50.904;6.922;2022-12-16T07:54:09;-5.70;99.90
28524;DHT22;15734;50.904;6.922;2022-12-16T07:56:53;-5.60;99.90
28524;DHT22;15734;50.904;6.922;2022-12-16T07:59:37;-5.60;99.90
28524;DHT22;15734;50.904;6.922;2022-12-16T08:02:22;-5.60;99.90
28524;DHT22;15734;50.904;6.922;2022-12-16T08:05:06;-5.80;99.90
28524;DHT22;15734;50.904;6.922;2022-12-16T08:07:50;-5.60;99.90
28524;DHT22;15734;50.904;6.922;2022-12-16T08:10:34;-5.60;99.90
28524;DHT22;15734;50.904;6.922;2022-12-16T08:13:18;-5.60;99.90
28524;DHT22;15734;50.904;6.922;2022-12-16T08:16:02;-5.60;99.90
28524;DHT22;15734;50.904;6.922;2022-12-16T08:18:46;-5.70;99.90
28524;DHT22;15734;50.904;6.922;2022-12-16T08:21:31;-5.70;99.90
28524;DHT22;15734;50.904;6.922;2022-12-16T08:24:15;-5.70;99.90
28524;DHT22;15734;50.904;6.922;2022-12-16T08:26:59;-5.70;99.90
28524;DHT22;15734;50.904;6.922;2022-12-16T08:29:43;-5.60;99.90
28524;DHT22;15734;50.904;6.922;2022-12-16T08:32:27;-5.50;99.90
28524;DHT22;15734;50.904;6.922;2022-12-16T08:35:12;-5.60;99.90
28524;DHT22;15734;50.904;6.922;2022-12-16T08:37:57;-5.50;99.90
28524;DHT22;15734;50.904;6.922;2022-12-16T08:40:41;-5.50;99.90
28524;DHT22;15734;50.904;6.922;2022-12-16T08:43:26;-5.30;99.90
28524;DHT22;15734;50.904;6.922;2022-12-16T08:46:10;-5.30;99.90
28524;DHT22;15734;50.904;6.922;2022-12-16T08:48:55;-5.30;99.90
28524;DHT22;15734;50.904;6.922;2022-12-16T08:51:39;-5.20;99.90
28524;DHT22;15734;50.904;6.922;2022-12-16T08:54:23;-5.30;99.90
28524;DHT22;15734;50.904;6.922;2022-12-16T08:57:07;-5.30;99.90
28524;DHT22;15734;50.904;6.922;2022-12-16T08:59:52;-5.40;99.90
28524;DHT22;15734;50.904;6.922;2022-12-16T09:02:36;-5.50;99.90
28524;DHT22;15734;50.904;6.922;2022-12-16T09:05:20;-5.40;99.90
28524;DHT22;15734;50.904;6.922;2022-12-16T09:08:04;-5.40;99.90
28524;DHT22;15734;50.904;6.922;2022-12-16T09:10:48;-5.40;99.90
28524;DHT22;15734;50.904;6.922;2022-12-16T09:13:33;-5.20;99.90
28524;DHT22;15734;50.904;6.922;2022-12-16T09:16:17;-5.20;99.90
28524;DHT22;15734;50.904;6.922;2022-12-16T09:19:01;-5.10;99.90
28524;DHT22;15734;50.904;6.922;2022-12-16T09:21:46;-5.30;99.90
28524;DHT22;15734;50.904;6.922;2022-12-16T09:24:30;-5.10;99.90
28524;DHT22;15734;50.904;6.922;2022-12-16T09:27:14;-4.90;99.90
28524;DHT22;15734;50.904;6.922;2022-12-16T09:29:58;-5.00;99.90
28524;DHT22;15734;50.904;6.922;2022-12-16T09:32:43;-4.80;99.90
28524;DHT22;15734;50.904;6.922;2022-12-16T09:35:28;-5.00;99.90
28524;DHT22;15734;50.904;6.922;2022-12-16T09:38:12;-5.00;99.90
28524;DHT22;15734;50.904;6.922;2022-12-16T09:40:56;-4.90;99.90
28524;DHT22;15734;50.904;6.922;2022-12-16T09:43:53;-4.70;99.90
28524;DHT22;15734;50.904;6.922;2022-12-16T09:52:27;-4.60;99.90
28524;DHT22;15734;50.904;6.922;2022-12-16T09:55:45;-4.40;99.90
28524;DHT22;15734;50.904;6.922;2022-12-16T09:58:23;-4.60;99.90
28524;DHT22;15734;50.904;6.922;2022-12-16T10:01:12;-4.50;99.90
28524;DHT22;15734;50.904;6.922;2022-12-16T10:03:57;-4.40;99.90
28524;DHT22;15734;50.904;6.922;2022-12-16T10:06:45;-4.20;99.90
28524;DHT22;15734;50.904;6.922;2022-12-16T10:15:35;-4.10;99.90
28524;DHT22;15734;50.904;6.922;2022-12-16T10:18:26;-3.90;99.90
28524;DHT22;15734;50.904;6.922;2022-12-16T10:21:13;-3.70;99.90
28524;DHT22;15734;50.904;6.922;2022-12-16T10:24:01;-3.70;99.90
28524;DHT22;15734;50.904;6.922;2022-12-16T10:26:52;-3.60;99.90
28524;DHT22;15734;50.904;6.922;2022-12-16T10:29:40;-3.60;99.90
28524;DHT22;15734;50.904;6.922;2022-12-16T10:32:30;-3.60;99.90
28524;DHT22;15734;50.904;6.922;2022-12-16T10:35:22;-3.60;99.90
28524;DHT22;15734;50.904;6.922;2022-12-16T10:38:14;-3.60;99.90
28524;DHT22;15734;50.904;6.922;2022-12-16T10:41:01;-3.60;99.90
28524;DHT22;15734;50.904;6.922;2022-12-16T10:43:57;-3.50;99.90
28524;DHT22;15734;50.904;6.922;2022-12-16T10:46:42;-3.50;99.90
28524;DHT22;15734;50.904;6.922;2022-12-16T10:49:26;-3.30;99.90
28524;DHT22;15734;50.904;6.922;2022-12-16T10:52:11;-3.30;99.90
28524;DHT22;15734;50.904;6.922;2022-12-16T10:57:57;-3.10;99.90
28524;DHT22;15734;50.904;6.922;2022-12-16T11:00:46;-3.00;99.90
28524;DHT22;15734;50.904;6.922;2022-12-16T11:03:31;-2.90;99.90
28524;DHT22;15734;50.904;6.922;2022-12-16T11:06:25;-2.70;99.90
28524;DHT22;15734;50.904;6.922;2022-12-16T11:15:28;-2.80;99.90
28524;DHT22;15734;50.904;6.922;2022-12-16T11:18:14;-2.70;99.90
28524;DHT22;15734;50.904;6.922;2022-12-16T11:21:03;-2.40;99.90
28524;DHT22;15734;50.904;6.922;2022-12-16T11:23:56;-2.30;99.90
28524;DHT22;15734;50.904;6.922;2022-12-16T11:26:53;-2.20;99.90
28524;DHT22;15734;50.904;6.922;2022-12-16T11:29:58;-2.40;99.90
28524;DHT22;15734;50.904;6.922;2022-12-16T11:32:47;-2.60;99.90
28524;DHT22;15734;50.904;6.922;2022-12-16T11:35:32;-2.50;99.90
28524;DHT22;15734;50.904;6.922;2022-12-16T11:38:21;-2.40;99.90
28524;DHT22;15734;50.904;6.922;2022-12-16T11:41:06;-2.30;99.90
28524;DHT22;15734;50.904;6.922;2022-12-16T11:43:51;-2.10;99.90
28524;DHT22;15734;50.904;6.922;2022-12-16T11:46:36;-2.00;99.90
28524;DHT22;15734;50.904;6.922;2022-12-16T11:49:25;-1.80;99.90
28524;DHT22;15734;50.904;6.922;2022-12-16T11:52:11;-2.00;99.90
28524;DHT22;15734;50.904;6.922;2022-12-16T11:55:03;-1.90;99.90
28524;DHT22;15734;50.904;6.922;2022-12-16T12:00:53;-1.70;99.90
28524;DHT22;15734;50.904;6.922;2022-12-16T12:03:43;-1.40;99.90
28524;DHT22;15734;50.904;6.922;2022-12-16T12:06:37;-1.40;99.90
28524;DHT22;15734;50.904;6.922;2022-12-16T12:09:24;-1.10;99.90
28524;DHT22;15734;50.904;6.922;2022-12-16T12:15:08;-1.40;99.90
28524;DHT22;15734;50.904;6.922;2022-12-16T12:26:14;-0.80;99.90
28524;DHT22;15734;50.904;6.922;2022-12-16T12:32:07;-0.80;99.90
28524;DHT22;15734;50.904;6.922;2022-12-16T12:35:01;-0.80;99.90
28524;DHT22;15734;50.904;6.922;2022-12-16T12:40:36;-1.10;99.90
28524;DHT22;15734;50.904;6.922;2022-12-16T12:46:34;-1.10;99.90
28524;DHT22;15734;50.904;6.922;2022-12-16T12:55:17;-0.90;99.90
28524;DHT22;15734;50.904;6.922;2022-12-16T12:58:02;-0.50;99.90
28524;DHT22;15734;50.904;6.922;2022-12-16T13:00:49;-0.30;99.90
28524;DHT22;15734;50.904;6.922;2022-12-16T13:03:46;-0.10;99.90
28524;DHT22;15734;50.904;6.922;2022-12-16T13:06:33;-0.20;99.90
28524;DHT22;15734;50.904;6.922;2022-12-16T13:14:54;-0.70;99.90
28524;DHT22;15734;50.904;6.922;2022-12-16T13:20:41;-0.80;99.90
28524;DHT22;15734;50.904;6.922;2022-12-16T13:23:29;-0.90;99.90
28524;DHT22;15734;50.904;6.922;2022-12-16T13:26:15;-0.90;99.90
28524;DHT22;15734;50.904;6.922;2022-12-16T13:32:32;-1.20;99.90
28524;DHT22;15734;50.904;6.922;2022-12-16T13:37:53;-1.00;99.90
28524;DHT22;15734;50.904;6.922;2022-12-16T13:40:54;-1.00;99.90
28524;DHT22;15734;50.904;6.922;2022-12-16T13:43:46;-1.10;99.90
28524;DHT22;15734;50.904;6.922;2022-12-16T13:46:39;-1.20;99.90
28524;DHT22;15734;50.904;6.922;2022-12-16T13:49:36;-1.30;99.90
28524;DHT22;15734;50.904;6.922;2022-12-16T13:52:42;-1.30;99.90
28524;DHT22;15734;50.904;6.922;2022-12-16T13:55:34;-1.30;99.90
28524;DHT22;15734;50.904;6.922;2022-12-16T14:01:17;-1.30;99.90
28524;DHT22;15734;50.904;6.922;2022-12-16T14:04:03;-1.30;99.90
28524;DHT22;15734;50.904;6.922;2022-12-16T14:06:51;-1.40;99.90
28524;DHT22;15734;50.904;6.922;2022-12-16T14:09:36;-1.20;99.90
28524;DHT22;15734;50.904;6.922;2022-12-16T14:12:34;-1.10;99.90
28524;DHT22;15734;50.904;6.922;2022-12-16T14:15:30;-1.10;99.90
28524;DHT22;15734;50.904;6.922;2022-12-16T14:18:21;-1.10;99.90
28524;DHT22;15734;50.904;6.922;2022-12-16T14:21:07;-1.10;99.90
28524;DHT22;15734;50.904;6.922;2022-12-16T14:23:57;-1.00;99.90
28524;DHT22;15734;50.904;6.922;2022-12-16T14:26:43;-1.00;99.90
28524;DHT22;15734;50.904;6.922;2022-12-16T14:29:29;-1.00;99.90
28524;DHT22;15734;50.904;6.922;2022-12-16T14:35:13;-1.00;99.90
28524;DHT22;15734;50.904;6.922;2022-12-16T14:37:57;-1.10;99.90
28524;DHT22;15734;50.904;6.922;2022-12-16T14:40:42;-1.10;99.90
28524;DHT22;15734;50.904;6.922;2022-12-16T14:43:26;-1.10;99.90
28524;DHT22;15734;50.904;6.922;2022-12-16T14:46:31;-1.10;99.90
28524;DHT22;15734;50.904;6.922;2022-12-16T14:49:16;-1.10;99.90
28524;DHT22;15734;50.904;6.922;2022-12-16T14:52:01;-1.10;99.90
28524;DHT22;15734;50.904;6.922;2022-12-16T14:54:45;-1.10;99.90
28524;DHT22;15734;50.904;6.922;2022-12-16T14:57:30;-1.10;99.90
28524;DHT22;15734;50.904;6.922;2022-12-16T15:00:16;-1.10;99.90
28524;DHT22;15734;50.904;6.922;2022-12-16T15:03:17;-1.10;99.90
28524;DHT22;15734;50.904;6.922;2022-12-16T15:06:05;-1.00;99.90
28524;DHT22;15734;50.904;6.922;2022-12-16T15:08:51;-0.90;99.90
28524;DHT22;15734;50.904;6.922;2022-12-16T15:11:37;-1.00;99.90
28524;DHT22;15734;50.904;6.922;2022-12-16T15:14:27;-1.00;99.90
28524;DHT22;15734;50.904;6.922;2022-12-16T15:17:22;-0.90;99.90
28524;DHT22;15734;50.904;6.922;2022-12-16T15:20:24;-0.90;99.90
28524;DHT22;15734;50.904;6.922;2022-12-16T15:23:20;-1.00;99.90
28524;DHT22;15734;50.904;6.922;2022-12-16T15:26:05;-0.90;99.90
28524;DHT22;15734;50.904;6.922;2022-12-16T15:28:50;-0.90;99.90
28524;DHT22;15734;50.904;6.922;2022-12-16T15:31:35;-0.90;99.90
28524;DHT22;15734;50.904;6.922;2022-12-16T15:37:11;-0.80;99.90
28524;DHT22;15734;50.904;6.922;2022-12-16T15:39:56;-0.90;99.90
28524;DHT22;15734;50.904;6.922;2022-12-16T15:42:41;-0.90;99.90
28524;DHT22;15734;50.904;6.922;2022-12-16T15:45:29;-0.90;99.90
28524;DHT22;15734;50.904;6.922;2022-12-16T15:51:28;-1.10;99.90
28524;DHT22;15734;50.904;6.922;2022-12-16T15:54:22;-1.10;99.90
28524;DHT22;15734;50.904;6.922;2022-12-16T16:00:17;-1.00;99.90
28524;DHT22;15734;50.904;6.922;2022-12-16T16:03:01;-1.00;99.90
28524;DHT22;15734;50.904;6.922;2022-12-16T16:05:45;-1.00;99.90
28524;DHT22;15734;50.904;6.922;2022-12-16T16:08:29;-0.90;99.90
28524;DHT22;15734;50.904;6.922;2022-12-16T16:11:13;-0.90;99.90
28524;DHT22;15734;50.904;6.922;2022-12-16T16:13:58;-0.90;99.90
28524;DHT22;15734;50.904;6.922;2022-12-16T16:16:42;-1.00;99.90
28524;DHT22;15734;50.904;6.922;2022-12-16T16:19:26;-1.00;99.90
28524;DHT22;15734;50.904;6.922;2022-12-16T16:22:11;-0.90;99.90
28524;DHT22;15734;50.904;6.922;2022-12-16T16:24:56;-0.90;99.90
28524;DHT22;15734;50.904;6.922;2022-12-16T16:27:40;-1.00;99.90
28524;DHT22;15734;50.904;6.922;2022-12-16T16:30:24;-1.00;99.90
28524;DHT22;15734;50.904;6.922;2022-12-16T16:33:09;-1.00;99.90
28524;DHT22;15734;50.904;6.922;2022-12-16T16:35:53;-1.00;99.90
28524;DHT22;15734;50.904;6.922;2022-12-16T16:38:37;-1.00;99.90
28524;DHT22;15734;50.904;6.922;2022-12-16T16:41:21;-1.00;99.90
28524;DHT22;15734;50.904;6.922;2022-12-16T16:44:05;-1.00;99.90
28524;DHT22;15734;50.904;6.922;2022-12-16T16:46:49;-1.00;99.90
28524;DHT22;15734;50.904;6.922;2022-12-16T16:49:36;-0.90;99.90
28524;DHT22;15734;50.904;6.922;2022-12-16T16:52:23;-0.90;99.90
28524;DHT22;15734;50.904;6.922;2022-12-16T16:55:07;-0.90;99.90
28524;DHT22;15734;50.904;6.922;2022-12-16T16:57:55;-0.90;99.90
28524;DHT22;15734;50.904;6.922;2022-12-16T17:00:40;-0.90;99.90
28524;DHT22;15734;50.904;6.922;2022-12-16T17:03:24;-0.80;99.90
28524;DHT22;15734;50.904;6.922;2022-12-16T17:06:08;-0.90;99.90
28524;DHT22;15734;50.904;6.922;2022-12-16T17:08:52;-0.90;99.90
28524;DHT22;15734;50.904;6.922;2022-12-16T17:11:36;-0.80;99.90
28524;DHT22;15734;50.904;6.922;2022-12-16T17:14:21;-0.80;99.90
28524;DHT22;15734;50.904;6.922;2022-12-16T17:17:05;-0.70;99.90
28524;DHT22;15734;50.904;6.922;2022-12-16T17:19:49;-0.70;99.90
28524;DHT22;15734;50.904;6.922;2022-12-16T17:22:33;-0.70;99.90
28524;DHT22;15734;50.904;6.922;2022-12-16T17:25:18;-0.70;99.90
28524;DHT22;15734;50.904;6.922;2022-12-16T17:28:02;-0.60;99.90
28524;DHT22;15734;50.904;6.922;2022-12-16T17:30:46;-0.50;99.90
28524;DHT22;15734;50.904;6.922;2022-12-16T17:33:30;-0.50;99.90
28524;DHT22;15734;50.904;6.922;2022-12-16T17:36:15;-0.40;99.90
28524;DHT22;15734;50.904;6.922;2022-12-16T17:38:59;-0.50;99.90
28524;DHT22;15734;50.904;6.922;2022-12-16T17:41:44;-0.50;99.90
28524;DHT22;15734;50.904;6.922;2022-12-16T17:44:28;-0.50;99.90
28524;DHT22;15734;50.904;6.922;2022-12-16T17:47:12;-0.50;99.90
28524;DHT22;15734;50.904;6.922;2022-12-16T17:50:01;-0.50;99.90
28524;DHT22;15734;50.904;6.922;2022-12-16T17:52:45;-0.50;99.90
28524;DHT22;15734;50.904;6.922;2022-12-16T17:55:29;-0.50;99.90
28524;DHT22;15734;50.904;6.922;2022-12-16T17:58:14;-0.50;99.90
28524;DHT22;15734;50.904;6.922;2022-12-16T18:01:05;-0.50;99.90
28524;DHT22;15734;50.904;6.922;2022-12-16T18:03:49;-0.50;99.90
28524;DHT22;15734;50.904;6.922;2022-12-16T18:06:33;-0.50;99.90
28524;DHT22;15734;50.904;6.922;2022-12-16T18:09:17;-0.50;99.90
28524;DHT22;15734;50.904;6.922;2022-12-16T18:12:01;-0.50;99.90
28524;DHT22;15734;50.904;6.922;2022-12-16T18:14:46;-0.50;99.90
28524;DHT22;15734;50.904;6.922;2022-12-16T18:17:30;-0.50;99.90
28524;DHT22;15734;50.904;6.922;2022-12-16T18:20:14;-0.50;99.90
28524;DHT22;15734;50.904;6.922;2022-12-16T18:22:59;-0.50;99.90
28524;DHT22;15734;50.904;6.922;2022-12-16T18:25:43;-0.40;99.90
28524;DHT22;15734;50.904;6.922;2022-12-16T18:28:27;-0.40;99.90
28524;DHT22;15734;50.904;6.922;2022-12-16T18:31:11;-0.40;99.90
28524;DHT22;15734;50.904;6.922;2022-12-16T18:33:56;-0.50;99.90
28524;DHT22;15734;50.904;6.922;2022-12-16T18:36:40;-0.40;99.90
28524;DHT22;15734;50.904;6.922;2022-12-16T18:39:24;-0.40;99.90